Time;durP1;ratioP1;P1;durP2;ratioP2;P2;SDS_P1;SDS_P2;PMS_P1;PMS_P2;Temp;Humidity;BMP_temperature;BMP_pressure;BME280_temperature;BME280_humidity;BME280_pressure;Samples;Min_cycle;Max_cycle;Signal;HPM_P1;HPM_P2
2023/03/13 00:01:49;;;;;;;33.08;20.88;;;8.80;99.90;;;;;;4803162;29;20133;-76
2023/03/13 00:04:15;;;;;;;37.90;19.23;;;8.80;99.90;;;;;;4813501;29;20083;-76
2023/03/13 00:06:42;;;;;;;30.08;19.10;;;8.80;99.90;;;;;;4818084;29;20038;-75
2023/03/13 00:09:11;;;;;;;30.08;18.88;;;8.80;99.90;;;;;;4814500;29;20118;-76
2023/03/13 00:11:37;;;;;;;34.45;21.20;;;8.80;99.90;;;;;;4819775;29;20051;-76
2023/03/13 00:14:05;;;;;;;28.95;20.10;;;8.80;99.90;;;;;;4798721;29;20054;-76
2023/03/13 00:16:34;;;;;;;37.15;19.80;;;8.90;99.90;;;;;;4800486;29;20110;-77
2023/03/13 00:19:01;;;;;;;36.00;20.20;;;8.80;99.90;;;;;;4817153;29;20047;-74
2023/03/13 00:21:28;;;;;;;27.15;18.60;;;8.80;99.90;;;;;;4799244;29;20523;-74
2023/03/13 00:23:56;;;;;;;31.45;18.67;;;8.70;99.90;;;;;;4816388;29;20302;-76
2023/03/13 00:26:25;;;;;;;29.38;19.40;;;8.70;99.90;;;;;;4815974;29;20818;-76
2023/03/13 00:28:52;;;;;;;27.92;19.00;;;8.60;99.90;;;;;;4797539;29;20041;-76
2023/03/13 00:31:30;;;;;;;26.25;19.23;;;8.60;99.90;;;;;;4817016;29;20050;-75
2023/03/13 00:34:00;;;;;;;26.60;18.83;;;8.60;99.90;;;;;;4808755;29;20122;-74
2023/03/13 00:36:30;;;;;;;28.95;19.10;;;8.60;99.90;;;;;;4805979;29;20632;-74
2023/03/13 00:38:57;;;;;;;36.17;18.00;;;8.60;99.90;;;;;;4809124;29;20564;-75
2023/03/13 00:41:27;;;;;;;27.98;19.08;;;8.60;99.90;;;;;;4809869;29;20090;-75
2023/03/13 00:43:54;;;;;;;30.58;18.92;;;8.60;99.90;;;;;;4805833;29;20144;-75
2023/03/13 00:46:23;;;;;;;24.90;19.42;;;8.60;99.90;;;;;;4800047;29;20768;-75
2023/03/13 00:48:51;;;;;;;31.92;18.30;;;8.60;99.90;;;;;;4798154;29;20049;-74
2023/03/13 00:51:20;;;;;;;31.58;19.42;;;8.60;99.90;;;;;;4819365;29;20056;-74
2023/03/13 00:53:47;;;;;;;34.75;18.98;;;8.70;99.90;;;;;;4821155;29;20057;-75
2023/03/13 00:56:19;;;;;;;24.67;17.55;;;8.70;99.90;;;;;;4817758;29;20697;-74
2023/03/13 00:58:47;;;;;;;31.33;18.77;;;8.70;99.90;;;;;;4821969;29;20081;-77
2023/03/13 01:01:25;;;;;;;23.67;17.95;;;8.70;99.90;;;;;;4800434;29;20080;-76
2023/03/13 01:03:59;;;;;;;22.73;17.60;;;8.70;99.90;;;;;;4806624;29;20441;-75
2023/03/13 01:06:29;;;;;;;28.48;17.42;;;8.80;99.90;;;;;;4822638;29;20095;-76
2023/03/13 01:08:58;;;;;;;27.98;17.90;;;8.80;99.90;;;;;;4802380;29;20542;-75
2023/03/13 01:11:29;;;;;;;34.70;17.98;;;8.80;99.90;;;;;;4816622;29;20054;-76
2023/03/13 01:13:59;;;;;;;32.00;18.30;;;8.80;99.90;;;;;;4813916;29;20110;-75
2023/03/13 01:16:27;;;;;;;23.23;17.17;;;8.80;99.90;;;;;;4816932;29;20056;-76
2023/03/13 01:18:57;;;;;;;24.23;16.73;;;8.90;99.90;;;;;;4809494;29;20053;-75
2023/03/13 01:21:25;;;;;;;29.45;20.02;;;8.90;99.90;;;;;;4812146;29;20094;-74
2023/03/13 01:23:53;;;;;;;25.92;17.65;;;9.00;99.90;;;;;;4821400;29;20050;-75
2023/03/13 01:26:21;;;;;;;42.42;17.90;;;8.90;99.90;;;;;;4809389;29;20595;-76
2023/03/13 01:28:48;;;;;;;30.40;18.10;;;9.00;99.90;;;;;;4815540;29;20039;-75
2023/03/13 01:31:28;;;;;;;26.98;17.15;;;9.00;99.90;;;;;;4808613;29;20058;-76
2023/03/13 01:33:57;;;;;;;31.70;17.67;;;9.00;99.90;;;;;;4805272;29;20402;-76
2023/03/13 01:36:24;;;;;;;27.65;19.02;;;9.10;99.90;;;;;;4817130;29;20547;-76
2023/03/13 01:38:54;;;;;;;29.73;17.40;;;9.20;99.90;;;;;;4806732;29;20372;-75
2023/03/13 01:41:22;;;;;;;29.80;18.02;;;9.20;99.90;;;;;;4814596;29;20066;-75
2023/03/13 01:43:49;;;;;;;25.67;16.90;;;9.20;99.90;;;;;;4822980;29;20129;-75
2023/03/13 01:46:18;;;;;;;28.75;17.60;;;9.20;99.90;;;;;;4810368;29;20106;-75
2023/03/13 01:49:21;;;;;;;27.00;18.05;;;9.20;99.90;;;;;;4796292;29;20070;-74
2023/03/13 01:52:29;;;;;;;22.65;17.20;;;9.20;99.90;;;;;;4811884;29;20046;-74
2023/03/13 01:55:13;;;;;;;33.80;17.35;;;9.20;99.90;;;;;;4795638;29;20114;-74
2023/03/13 01:57:49;;;;;;;26.60;17.10;;;9.20;99.90;;;;;;4819147;29;20166;-74
2023/03/13 02:00:25;;;;;;;28.30;16.70;;;9.30;99.90;;;;;;4809542;29;20855;-73
2023/03/13 02:02:56;;;;;;;31.40;16.23;;;9.30;99.90;;;;;;4814946;29;20049;-76
2023/03/13 02:05:27;;;;;;;31.30;15.43;;;9.20;99.90;;;;;;4815256;29;20134;-76
2023/03/13 02:07:59;;;;;;;26.88;15.95;;;9.20;99.90;;;;;;4817843;29;20210;-75
2023/03/13 02:10:28;;;;;;;18.70;13.55;;;9.10;99.90;;;;;;4818495;29;20137;-76
2023/03/13 02:12:56;;;;;;;31.73;14.60;;;9.10;99.90;;;;;;4818006;29;20057;-78
2023/03/13 02:15:25;;;;;;;36.15;14.98;;;9.10;99.90;;;;;;4815160;29;20141;-77
2023/03/13 02:17:53;;;;;;;26.63;13.07;;;9.10;99.90;;;;;;4813354;29;20078;-75
2023/03/13 02:20:23;;;;;;;27.10;11.93;;;9.00;99.90;;;;;;4812183;29;20057;-75
2023/03/13 02:22:53;;;;;;;31.13;13.45;;;9.00;99.90;;;;;;4804799;29;20042;-77
2023/03/13 02:25:22;;;;;;;32.58;10.00;;;8.90;99.90;;;;;;4798493;29;20388;-76
2023/03/13 02:28:02;;;;;;;28.83;10.40;;;8.90;99.90;;;;;;4802470;29;20049;-77
2023/03/13 02:30:32;;;;;;;34.90;9.80;;;8.80;99.90;;;;;;4791537;29;20094;-75
2023/03/13 02:33:00;;;;;;;25.25;9.05;;;8.80;99.90;;;;;;4812477;29;20078;-77
2023/03/13 02:35:30;;;;;;;37.38;9.02;;;8.80;99.90;;;;;;4794520;29;20527;-76
2023/03/13 02:38:04;;;;;;;23.20;9.13;;;8.80;99.90;;;;;;4811699;29;20054;-76
2023/03/13 02:40:41;;;;;;;31.92;9.98;;;8.80;99.90;;;;;;4793883;29;20711;-75
2023/03/13 02:43:22;;;;;;;29.25;9.32;;;8.80;99.90;;;;;;4809876;29;20789;-74
2023/03/13 02:46:20;;;;;;;25.77;8.00;;;8.80;99.90;;;;;;4818325;29;20038;-76
2023/03/13 02:48:53;;;;;;;27.65;9.38;;;8.70;99.90;;;;;;4826811;29;20077;-80
2023/03/13 02:51:36;;;;;;;28.00;8.18;;;8.70;99.90;;;;;;4819198;29;20382;-74
2023/03/13 02:54:09;;;;;;;28.63;8.05;;;8.70;99.90;;;;;;4796550;29;20130;-75
2023/03/13 02:56:38;;;;;;;28.15;8.75;;;8.80;99.90;;;;;;4818553;29;20250;-75
2023/03/13 02:59:06;;;;;;;22.58;7.80;;;8.80;99.90;;;;;;4796110;29;20420;-78
2023/03/13 03:01:35;;;;;;;20.92;7.88;;;8.90;99.90;;;;;;4816453;29;20073;-80
2023/03/13 03:04:02;;;;;;;34.63;7.88;;;8.90;99.90;;;;;;4826711;29;20546;-76
2023/03/13 03:06:30;;;;;;;23.20;9.35;;;8.90;99.90;;;;;;4806125;29;20046;-78
2023/03/13 03:08:56;;;;;;;26.98;8.45;;;9.00;99.90;;;;;;4800133;29;20050;-75
2023/03/13 03:11:25;;;;;;;24.58;7.70;;;8.90;99.90;;;;;;4791797;29;21067;-78
2023/03/13 03:13:58;;;;;;;23.10;7.30;;;8.80;99.90;;;;;;4815805;29;20148;-75
2023/03/13 03:16:26;;;;;;;27.60;7.00;;;8.70;99.90;;;;;;4814348;29;20050;-75
2023/03/13 03:18:53;;;;;;;22.73;7.68;;;8.60;99.90;;;;;;4820724;29;20145;-77
2023/03/13 03:21:22;;;;;;;34.20;8.10;;;8.50;99.90;;;;;;4817139;29;20042;-77
2023/03/13 03:23:51;;;;;;;28.63;8.52;;;8.40;99.90;;;;;;4799501;29;20070;-77
2023/03/13 03:26:18;;;;;;;18.15;5.70;;;8.40;99.90;;;;;;4813052;29;20046;-78
2023/03/13 03:28:45;;;;;;;21.55;5.80;;;8.30;99.90;;;;;;4815350;29;20651;-78
2023/03/13 03:31:14;;;;;;;22.90;6.45;;;8.30;99.90;;;;;;4802540;29;20050;-77
2023/03/13 03:33:42;;;;;;;29.27;7.00;;;8.30;99.90;;;;;;4797909;29;20050;-79
2023/03/13 03:36:18;;;;;;;23.75;6.75;;;8.30;99.90;;;;;;4801136;29;20058;-79
2023/03/13 03:38:46;;;;;;;24.83;7.32;;;8.30;99.90;;;;;;4815110;29;20050;-80
2023/03/13 03:41:18;;;;;;;24.48;6.28;;;8.30;99.90;;;;;;4816127;29;20050;-79
2023/03/13 03:43:46;;;;;;;20.92;5.80;;;8.20;99.90;;;;;;4809017;29;20042;-81
2023/03/13 03:46:15;;;;;;;23.52;6.43;;;8.30;99.90;;;;;;4815467;29;20077;-81
2023/03/13 03:48:42;;;;;;;32.58;7.18;;;8.30;99.90;;;;;;4802545;29;20102;-81
2023/03/13 03:51:10;;;;;;;26.63;8.07;;;8.30;99.90;;;;;;4819322;29;20062;-79
2023/03/13 03:53:40;;;;;;;21.95;7.03;;;8.40;99.90;;;;;;4819164;29;20054;-82
2023/03/13 03:56:07;;;;;;;33.90;7.20;;;8.40;99.90;;;;;;4813104;29;20476;-80
2023/03/13 03:58:39;;;;;;;37.25;7.53;;;8.30;99.90;;;;;;4814762;29;20057;-79
2023/03/13 04:01:20;;;;;;;27.70;6.07;;;8.30;99.90;;;;;;4798164;29;20047;-80
2023/03/13 04:03:47;;;;;;;27.30;6.45;;;8.30;99.90;;;;;;4810166;29;20289;-79
2023/03/13 04:06:14;;;;;;;25.33;6.90;;;8.30;99.90;;;;;;4804629;29;20411;-81
2023/03/13 04:08:41;;;;;;;29.58;6.60;;;8.30;99.90;;;;;;4822016;29;20050;-81
2023/03/13 04:11:11;;;;;;;29.08;6.78;;;8.20;99.90;;;;;;4810458;29;20057;-81
2023/03/13 04:13:41;;;;;;;27.75;6.40;;;8.20;99.90;;;;;;4819347;29;20046;-81
2023/03/13 04:16:09;;;;;;;25.92;6.60;;;8.10;99.90;;;;;;4795807;29;20054;-83
2023/03/13 04:18:36;;;;;;;30.40;7.18;;;8.10;99.90;;;;;;4812697;29;20137;-80
2023/03/13 04:21:05;;;;;;;32.17;6.88;;;8.00;99.90;;;;;;4814312;29;20069;-80
2023/03/13 04:23:51;;;;;;;26.88;6.05;;;8.00;99.90;;;;;;4813405;29;20039;-80
2023/03/13 04:26:18;;;;;;;23.98;6.63;;;8.00;99.90;;;;;;4816224;29;20520;-83
2023/03/13 04:28:45;;;;;;;21.88;6.13;;;8.00;99.90;;;;;;4806620;29;20038;-81
2023/03/13 04:31:17;;;;;;;23.70;6.53;;;8.00;99.90;;;;;;4807189;29;20046;-81
2023/03/13 04:34:02;;;;;;;;;;;8.00;99.90;;;;;;4813613;29;20050;-84
2023/03/13 04:36:41;;;;;;;24.35;5.10;;;7.90;99.90;;;;;;4813178;29;19996;-79
2023/03/13 04:39:26;;;;;;;22.27;5.90;;;7.90;99.90;;;;;;4811043;29;20722;-79
2023/03/13 04:42:10;;;;;;;26.35;5.68;;;7.90;99.90;;;;;;4803903;29;20081;-80
2023/03/13 04:44:56;;;;;;;25.35;6.97;;;7.90;99.90;;;;;;4816954;29;20072;-80
2023/03/13 04:47:41;;;;;;;;;;;7.90;99.90;;;;;;4809684;29;21432;-81
2023/03/13 04:50:31;;;;;;;26.55;5.93;;;7.90;99.90;;;;;;4799029;29;19936;-79
2023/03/13 04:53:16;;;;;;;;;;;7.90;99.90;;;;;;4814496;29;20662;-81
2023/03/13 04:55:51;;;;;;;32.83;5.90;;;7.90;99.90;;;;;;4791574;29;19925;-78
2023/03/13 04:58:36;;;;;;;;;;;7.90;99.90;;;;;;4812964;29;20141;-79
2023/03/13 05:01:12;;;;;;;19.20;4.75;;;7.90;99.90;;;;;;4794053;29;19964;-79
2023/03/13 05:04:02;;;;;;;12.65;4.45;;;8.00;99.90;;;;;;4814457;29;20042;-82
2023/03/13 05:06:43;;;;;;;15.40;4.03;;;8.00;99.90;;;;;;4818516;29;20362;-79
2023/03/13 05:09:20;;;;;;;14.23;3.20;;;8.10;99.90;;;;;;4813888;29;20119;-80
2023/03/13 05:11:50;;;;;;;15.63;2.83;;;8.10;99.90;;;;;;4816748;29;20054;-79
2023/03/13 05:14:29;;;;;;;13.18;3.17;;;8.20;99.90;;;;;;4814582;29;20061;-79
2023/03/13 05:17:16;;;;;;;12.40;3.58;;;8.20;99.90;;;;;;4814308;29;20133;-78
2023/03/13 05:20:12;;;;;;;16.55;3.60;;;8.30;99.90;;;;;;4800278;29;20658;-81
2023/03/13 05:23:05;;;;;;;12.48;2.38;;;8.50;99.90;;;;;;4801253;29;20054;-79
2023/03/13 05:25:52;;;;;;;4.13;2.05;;;8.60;99.90;;;;;;4823776;29;20053;-81
2023/03/13 05:28:45;;;;;;;3.40;1.52;;;8.90;99.90;;;;;;4808243;29;20149;-82
2023/03/13 05:31:32;;;;;;;3.67;0.93;;;9.20;99.90;;;;;;4808052;29;20042;-78
2023/03/13 05:34:19;;;;;;;5.30;1.23;;;9.50;99.90;;;;;;4821031;29;20488;-81
2023/03/13 05:37:06;;;;;;;2.25;1.58;;;9.60;99.90;;;;;;4812164;29;20050;-79
2023/03/13 05:39:55;;;;;;;3.45;1.52;;;9.80;99.90;;;;;;4820300;29;20045;-80
2023/03/13 05:42:31;;;;;;;2.58;1.33;;;9.80;99.90;;;;;;4818715;29;20061;-80
2023/03/13 05:45:10;;;;;;;3.22;1.38;;;9.90;99.90;;;;;;4802272;29;20070;-77
2023/03/13 05:47:49;;;;;;;5.60;1.60;;;10.00;99.90;;;;;;4813192;29;20039;-81
2023/03/13 05:50:34;;;;;;;;;;;10.00;99.90;;;;;;4812013;29;21375;-80
2023/03/13 05:53:16;;;;;;;5.75;1.65;;;10.10;99.90;;;;;;4821309;29;20443;-77
2023/03/13 05:56:03;;;;;;;5.40;1.67;;;10.10;99.90;;;;;;4819369;29;20046;-78
2023/03/13 05:59:02;;;;;;;6.18;1.80;;;10.10;99.90;;;;;;4809547;29;20141;-82
2023/03/13 06:01:31;;;;;;;1.95;1.48;;;10.10;99.90;;;;;;4817768;29;20076;-79
2023/03/13 06:04:03;;;;;;;2.50;1.52;;;10.20;99.90;;;;;;4817484;29;20179;-79
2023/03/13 06:06:33;;;;;;;2.97;1.80;;;10.20;99.90;;;;;;4818026;29;20046;-78
2023/03/13 06:09:00;;;;;;;4.03;1.73;;;10.20;99.90;;;;;;4812153;29;20156;-80
2023/03/13 06:11:30;;;;;;;4.18;1.80;;;10.20;99.90;;;;;;4812584;29;20042;-81
2023/03/13 06:13:56;;;;;;;2.58;1.77;;;10.20;99.90;;;;;;4812223;29;20055;-81
2023/03/13 06:16:38;;;;;;;3.80;1.45;;;10.20;99.90;;;;;;4804224;29;20118;-80
2023/03/13 06:19:17;;;;;;;1.90;1.25;;;10.20;99.90;;;;;;4818225;29;20129;-83
2023/03/13 06:21:43;;;;;;;5.80;2.25;;;10.20;99.90;;;;;;4808792;29;20147;-81
2023/03/13 06:24:10;;;;;;;1.60;1.27;;;10.30;99.90;;;;;;4813382;29;20042;-80
2023/03/13 06:26:37;;;;;;;4.93;2.00;;;10.30;99.90;;;;;;4818951;29;20042;-81
2023/03/13 06:29:04;;;;;;;8.88;3.58;;;10.30;99.90;;;;;;4815483;29;20556;-79
2023/03/13 06:31:31;;;;;;;4.53;3.22;;;10.40;99.90;;;;;;4830697;29;20045;-78
2023/03/13 06:33:58;;;;;;;7.50;4.20;;;10.40;99.90;;;;;;4817398;29;20085;-80
2023/03/13 06:36:24;;;;;;;3.10;2.42;;;10.40;99.90;;;;;;4835581;29;20046;-78
2023/03/13 06:38:51;;;;;;;5.20;2.13;;;10.40;99.90;;;;;;4818943;29;20046;-81
2023/03/13 06:41:18;;;;;;;2.58;1.90;;;10.40;99.90;;;;;;4815951;29;20042;-80
2023/03/13 06:43:45;;;;;;;3.17;1.88;;;10.50;99.90;;;;;;4814565;29;20042;-77
2023/03/13 06:46:17;;;;;;;5.53;4.15;;;10.50;99.90;;;;;;4809798;29;20046;-79
2023/03/13 06:48:45;;;;;;;4.40;2.47;;;10.50;99.90;;;;;;4821128;29;20071;-78
2023/03/13 06:51:13;;;;;;;2.97;1.48;;;10.50;99.90;;;;;;4809684;29;20066;-80
2023/03/13 06:53:41;;;;;;;2.30;1.90;;;10.50;99.90;;;;;;4816638;29;20054;-80
2023/03/13 06:56:08;;;;;;;5.38;2.33;;;10.50;99.90;;;;;;4818105;29;20046;-81
2023/03/13 06:58:35;;;;;;;1.95;1.80;;;10.60;99.90;;;;;;4812612;29;20054;-78
2023/03/13 07:01:08;;;;;;;2.53;1.65;;;10.60;99.90;;;;;;4818112;29;20081;-78
2023/03/13 07:03:35;;;;;;;4.70;1.95;;;10.70;99.90;;;;;;4813849;29;20054;-78
2023/03/13 07:06:02;;;;;;;2.65;2.42;;;10.70;99.90;;;;;;4822068;29;20052;-78
2023/03/13 07:08:29;;;;;;;4.38;3.28;;;10.80;99.90;;;;;;4797293;29;20118;-77
2023/03/13 07:11:04;;;;;;;4.88;3.20;;;10.80;99.90;;;;;;4825512;29;20120;-77
2023/03/13 07:13:31;;;;;;;4.32;2.95;;;10.80;99.90;;;;;;4820633;29;20053;-77
2023/03/13 07:16:03;;;;;;;3.83;3.53;;;10.90;99.90;;;;;;4819534;29;20326;-76
2023/03/13 07:18:31;;;;;;;6.88;3.83;;;10.90;99.90;;;;;;4822193;29;20130;-75
2023/03/13 07:20:59;;;;;;;3.83;2.85;;;10.80;99.90;;;;;;4823716;29;20046;-75
2023/03/13 07:23:28;;;;;;;4.15;3.38;;;10.90;99.90;;;;;;4821562;29;20915;-75
2023/03/13 07:25:57;;;;;;;6.32;4.07;;;10.90;99.90;;;;;;4822328;29;20046;-76
2023/03/13 07:28:25;;;;;;;3.63;3.30;;;10.90;99.90;;;;;;4805632;29;20054;-75
2023/03/13 07:30:52;;;;;;;4.28;3.92;;;11.00;99.90;;;;;;4808551;29;20129;-77
2023/03/13 07:33:19;;;;;;;4.28;3.97;;;11.10;99.90;;;;;;4806367;29;20051;-76
2023/03/13 07:35:50;;;;;;;4.63;3.92;;;11.10;99.90;;;;;;4809410;29;20639;-77
2023/03/13 07:38:20;;;;;;;4.72;4.38;;;11.10;99.90;;;;;;4797044;29;20321;-75
2023/03/13 07:40:52;;;;;;;4.72;4.40;;;11.10;99.90;;;;;;4808216;29;20220;-75
2023/03/13 07:43:19;;;;;;;4.35;4.15;;;11.20;99.90;;;;;;4808259;29;20317;-78
2023/03/13 07:45:57;;;;;;;5.43;4.80;;;11.30;99.90;;;;;;4811485;29;20216;-76
2023/03/13 07:48:28;;;;;;;5.15;4.90;;;11.30;99.90;;;;;;4804170;29;20516;-75
2023/03/13 07:50:55;;;;;;;6.80;6.40;;;11.40;99.90;;;;;;4804005;29;20039;-75
2023/03/13 07:53:22;;;;;;;5.75;5.45;;;11.40;99.90;;;;;;4812545;29;20042;-76
2023/03/13 07:55:59;;;;;;;5.60;5.30;;;11.40;99.90;;;;;;4802932;29;20481;-77
2023/03/13 07:58:32;;;;;;;5.40;5.20;;;11.40;99.90;;;;;;4807319;29;20490;-75
2023/03/13 08:00:59;;;;;;;5.60;5.30;;;11.40;99.90;;;;;;4814000;29;20053;-76
2023/03/13 08:03:27;;;;;;;6.00;5.60;;;11.40;99.90;;;;;;4814113;29;20077;-76
2023/03/13 08:06:09;;;;;;;6.85;6.32;;;11.50;99.90;;;;;;4817933;29;20089;-75
2023/03/13 08:08:37;;;;;;;7.90;7.40;;;11.60;99.90;;;;;;4812136;29;20235;-76
2023/03/13 08:11:06;;;;;;;7.80;7.40;;;11.60;99.90;;;;;;4810983;29;20319;-75
2023/03/13 08:13:34;;;;;;;8.68;7.93;;;11.70;99.90;;;;;;4814095;29;20227;-76
2023/03/13 08:16:16;;;;;;;9.27;8.55;;;11.70;99.90;;;;;;4813718;29;20141;-75
2023/03/13 08:18:45;;;;;;;7.72;7.43;;;11.80;99.90;;;;;;4814450;29;20064;-76
2023/03/13 08:21:17;;;;;;;8.57;8.07;;;11.80;99.90;;;;;;4807651;29;20104;-75
2023/03/13 08:23:44;;;;;;;9.23;8.45;;;11.90;99.90;;;;;;4800976;29;20054;-74
2023/03/13 08:26:14;;;;;;;9.10;8.63;;;11.90;99.90;;;;;;4808787;29;20212;-75
2023/03/13 08:28:42;;;;;;;9.55;8.93;;;12.00;99.90;;;;;;4818065;29;20046;-76
2023/03/13 08:31:21;;;;;;;9.60;8.95;;;11.90;99.90;;;;;;4813465;29;20117;-76
2023/03/13 08:33:48;;;;;;;10.43;9.82;;;11.90;99.90;;;;;;4799530;29;20489;-76
2023/03/13 08:36:26;;;;;;;11.02;10.55;;;12.00;99.90;;;;;;4819656;29;20052;-75
2023/03/13 08:38:54;;;;;;;11.40;10.90;;;12.10;99.90;;;;;;4813275;29;20991;-76
2023/03/13 08:41:27;;;;;;;12.70;12.00;;;12.20;99.90;;;;;;4807071;29;20051;-76
2023/03/13 08:43:55;;;;;;;11.82;11.32;;;12.20;99.90;;;;;;4819753;29;20134;-76
2023/03/13 08:46:23;;;;;;;13.20;12.50;;;12.20;99.90;;;;;;4802195;29;20050;-76
2023/03/13 08:48:51;;;;;;;12.98;12.07;;;12.20;99.90;;;;;;4805143;29;20049;-77
2023/03/13 08:51:20;;;;;;;12.18;11.57;;;12.30;99.90;;;;;;4802827;29;20098;-75
2023/03/13 08:53:47;;;;;;;13.45;12.15;;;12.30;99.90;;;;;;4818186;29;20395;-75
2023/03/13 08:56:16;;;;;;;12.38;11.77;;;12.30;99.90;;;;;;4820872;29;20047;-74
2023/03/13 08:58:43;;;;;;;12.40;11.65;;;12.30;99.90;;;;;;4821374;29;20128;-76
2023/03/13 09:01:13;;;;;;;13.32;12.73;;;12.30;99.90;;;;;;4825949;29;20592;-75
2023/03/13 09:03:40;;;;;;;14.40;13.80;;;12.40;99.90;;;;;;4840459;29;20526;-76
2023/03/13 09:06:09;;;;;;;13.73;13.02;;;12.40;99.90;;;;;;4818041;29;20056;-75
2023/03/13 09:08:37;;;;;;;15.35;14.45;;;12.40;99.90;;;;;;4837437;29;20558;-76
2023/03/13 09:11:09;;;;;;;17.38;16.27;;;12.40;99.90;;;;;;4827076;29;20045;-76
2023/03/13 09:13:39;;;;;;;16.65;15.77;;;12.50;99.90;;;;;;4802216;29;20069;-75
2023/03/13 09:16:09;;;;;;;21.08;19.40;;;12.40;99.90;;;;;;4817593;29;20597;-76
2023/03/13 09:18:36;;;;;;;17.70;16.80;;;12.50;99.90;;;;;;4819855;29;20050;-76
2023/03/13 09:21:09;;;;;;;18.83;17.75;;;12.50;99.90;;;;;;4834641;29;20058;-76
2023/03/13 09:23:35;;;;;;;18.83;17.83;;;12.60;99.90;;;;;;4821717;29;20054;-77
2023/03/13 09:26:03;;;;;;;19.65;18.63;;;12.60;99.90;;;;;;4822651;29;20081;-75
2023/03/13 09:28:30;;;;;;;18.38;17.42;;;12.60;99.90;;;;;;4803015;29;20133;-76
2023/03/13 09:31:13;;;;;;;17.85;16.98;;;12.60;99.90;;;;;;4820247;29;20049;-75
2023/03/13 09:33:42;;;;;;;18.38;17.45;;;12.70;99.90;;;;;;4815513;29;20094;-77
2023/03/13 09:36:09;;;;;;;19.40;18.02;;;12.70;99.90;;;;;;4809757;29;20614;-75
2023/03/13 09:38:36;;;;;;;18.38;17.25;;;12.70;99.90;;;;;;4801141;29;20046;-76
2023/03/13 09:41:33;;;;;;;17.00;16.10;;;12.80;99.90;;;;;;4813742;29;20571;-75
2023/03/13 09:44:10;;;;;;;18.30;17.00;;;12.70;99.90;;;;;;4832622;29;20053;-75
2023/03/13 09:46:52;;;;;;;18.55;17.65;;;12.70;99.90;;;;;;4810072;29;20042;-75
2023/03/13 09:49:36;;;;;;;19.20;18.10;;;12.70;99.90;;;;;;4815900;29;20042;-75
2023/03/13 09:52:23;;;;;;;18.63;17.63;;;12.80;99.90;;;;;;4825387;29;20046;-75
2023/03/13 09:55:03;;;;;;;20.25;18.98;;;12.70;99.90;;;;;;4827136;29;20050;-76
2023/03/13 09:57:43;;;;;;;20.40;18.55;;;12.70;99.90;;;;;;4803455;29;20068;-76
2023/03/13 10:00:37;;;;;;;21.52;19.90;;;12.80;99.90;;;;;;4814554;29;20093;-73
2023/03/13 10:03:09;;;;;;;19.02;17.90;;;12.80;99.90;;;;;;4814702;29;20145;-74
2023/03/13 10:05:42;;;;;;;20.10;18.92;;;12.90;99.90;;;;;;4827481;29;20050;-74
2023/03/13 10:08:24;;;;;;;20.48;19.17;;;12.90;99.90;;;;;;4815387;29;20120;-75
2023/03/13 10:11:00;;;;;;;18.60;17.25;;;12.80;99.90;;;;;;4815590;29;20256;-74
2023/03/13 10:13:53;;;;;;;18.05;16.88;;;12.80;99.90;;;;;;4815773;29;20053;-74
2023/03/13 10:16:29;;;;;;;18.60;17.55;;;12.80;99.90;;;;;;4803091;29;20074;-75
2023/03/13 10:18:58;;;;;;;17.35;16.05;;;12.70;99.90;;;;;;4811968;29;20065;-75
2023/03/13 10:21:32;;;;;;;15.57;14.70;;;12.50;99.90;;;;;;4801390;29;20049;-74
2023/03/13 10:24:47;;;;;;;14.40;13.15;;;12.50;99.90;;;;;;4811201;29;20062;-75
2023/03/13 10:27:14;;;;;;;11.02;10.32;;;12.40;99.90;;;;;;4815244;29;20089;-76
2023/03/13 10:29:41;;;;;;;13.00;11.68;;;12.30;99.90;;;;;;4818119;29;20056;-76
2023/03/13 10:32:14;;;;;;;13.40;11.95;;;12.30;99.90;;;;;;4807700;29;20593;-75
2023/03/13 10:34:59;;;;;;;13.40;12.18;;;12.30;99.90;;;;;;4810857;29;20049;-74
2023/03/13 10:37:29;;;;;;;12.48;11.40;;;12.50;99.90;;;;;;4806735;29;20152;-73
2023/03/13 10:40:25;;;;;;;14.23;13.07;;;12.70;99.90;;;;;;4803362;29;20407;-74
2023/03/13 10:42:59;;;;;;;15.07;14.27;;;13.00;99.90;;;;;;4811606;29;20064;-74
2023/03/13 10:45:29;;;;;;;17.33;16.23;;;13.10;99.90;;;;;;4798056;29;20068;-75
2023/03/13 10:48:00;;;;;;;17.40;16.48;;;13.10;99.90;;;;;;4813860;29;20060;-74
2023/03/13 10:50:31;;;;;;;17.83;16.80;;;13.10;99.90;;;;;;4807886;29;20497;-75
2023/03/13 10:53:29;;;;;;;18.38;17.48;;;13.20;99.90;;;;;;4793950;29;20045;-75
2023/03/13 10:56:09;;;;;;;20.08;18.95;;;13.30;99.90;;;;;;4790404;29;20447;-74
2023/03/13 10:58:40;;;;;;;19.50;18.35;;;13.30;99.90;;;;;;4818842;29;20050;-75
2023/03/13 11:01:27;;;;;;;18.88;17.83;;;13.40;99.90;;;;;;4830805;29;20129;-76
2023/03/13 11:03:56;;;;;;;19.55;18.35;;;13.40;99.90;;;;;;4808732;29;20054;-74
2023/03/13 11:06:30;;;;;;;20.00;18.80;;;13.50;99.90;;;;;;4820634;29;20080;-73
2023/03/13 11:09:09;;;;;;;22.65;21.48;;;13.60;99.90;;;;;;4816613;29;20492;-75
2023/03/13 11:11:47;;;;;;;21.35;20.15;;;13.60;99.90;;;;;;5055419;27;20686;-73
2023/03/13 11:14:33;;;;;;;22.83;21.25;;;13.60;99.90;;;;;;5088483;27;20066;-73
2023/03/13 11:17:22;;;;;;;19.98;18.83;;;13.70;99.90;;;;;;5086295;28;20066;-73
2023/03/13 11:20:04;;;;;;;18.65;17.48;;;13.80;99.90;;;;;;5086385;28;20516;-71
2023/03/13 11:22:46;;;;;;;20.10;18.65;;;13.90;99.90;;;;;;5083480;28;20036;-72
2023/03/13 11:25:20;;;;;;;20.35;19.05;;;13.80;99.90;;;;;;5086805;28;20095;-72
2023/03/13 11:28:03;;;;;;;20.65;19.55;;;14.00;99.90;;;;;;5108050;27;20052;-73
2023/03/13 11:31:01;;;;;;;21.52;20.23;;;14.10;99.90;;;;;;5105936;27;20153;-71
2023/03/13 11:33:57;;;;;;;21.60;20.45;;;14.20;99.90;;;;;;5107495;27;20051;-73
2023/03/13 11:36:42;;;;;;;19.98;18.88;;;14.30;99.90;;;;;;5098230;27;20198;-71
2023/03/13 11:39:20;;;;;;;22.13;20.63;;;14.50;99.90;;;;;;5106987;27;20065;-71
2023/03/13 11:42:01;;;;;;;24.33;22.92;;;14.70;99.90;;;;;;5105683;27;20713;-72
2023/03/13 11:44:27;;;;;;;26.45;24.85;;;14.80;99.90;;;;;;5105163;27;20446;-71
2023/03/13 11:47:22;;;;;;;24.25;22.85;;;14.80;99.90;;;;;;5107700;27;20508;-71
2023/03/13 11:50:25;;;;;;;25.30;24.00;;;14.80;99.90;;;;;;5108658;27;20032;-72
2023/03/13 11:53:12;;;;;;;28.25;26.23;;;14.80;99.90;;;;;;5100578;27;20229;-71
2023/03/13 11:55:48;;;;;;;26.75;25.23;;;14.70;99.90;;;;;;5102488;27;20064;-73
2023/03/13 11:58:40;;;;;;;26.02;24.48;;;14.70;99.90;;;;;;5101045;27;20045;-70
2023/03/13 12:01:18;;;;;;;27.25;25.80;;;14.70;99.90;;;;;;5112096;27;20037;-70
2023/03/13 12:04:00;;;;;;;25.98;24.55;;;14.60;99.90;;;;;;5107801;27;20039;-70
2023/03/13 12:06:31;;;;;;;26.20;24.85;;;14.60;99.90;;;;;;5103506;27;20031;-70
2023/03/13 12:09:21;;;;;;;28.98;27.48;;;14.70;99.90;;;;;;5103723;27;20502;-71
2023/03/13 12:12:02;;;;;;;26.08;24.77;;;14.60;99.90;;;;;;5082272;27;20050;-70
2023/03/13 12:15:06;;;;;;;27.90;26.60;;;14.60;99.90;;;;;;5100697;27;20116;-72
2023/03/13 12:17:39;;;;;;;28.52;26.98;;;14.60;99.90;;;;;;5104956;27;20477;-71
2023/03/13 12:20:43;;;;;;;33.80;32.30;;;14.60;99.90;;;;;;5099361;27;20055;-72
2023/03/13 12:23:14;;;;;;;26.80;25.30;;;14.70;99.90;;;;;;5093454;27;20406;-70
2023/03/13 12:26:03;;;;;;;27.88;26.48;;;14.70;99.90;;;;;;5090561;27;20269;-72
2023/03/13 12:29:06;;;;;;;25.90;24.40;;;14.70;99.90;;;;;;5090918;27;20039;-71
2023/03/13 12:31:56;;;;;;;26.65;25.25;;;14.60;99.90;;;;;;5092571;27;20220;-72
2023/03/13 12:34:33;;;;;;;26.48;24.88;;;14.60;99.90;;;;;;5079769;27;20043;-73
2023/03/13 12:37:20;;;;;;;27.15;25.85;;;14.60;99.90;;;;;;5092536;27;20058;-71
2023/03/13 12:40:06;;;;;;;27.30;25.98;;;14.70;99.90;;;;;;5092394;27;20305;-70
2023/03/13 12:42:52;;;;;;;25.30;24.10;;;14.70;99.90;;;;;;5090638;27;20051;-71
2023/03/13 12:45:23;;;;;;;27.08;25.77;;;14.70;99.90;;;;;;5089664;27;20502;-72
2023/03/13 12:48:19;;;;;;;25.17;23.88;;;14.80;99.90;;;;;;5093888;27;20120;-71
2023/03/13 12:51:03;;;;;;;26.83;25.38;;;14.80;99.90;;;;;;5089786;27;20047;-71
2023/03/13 12:53:54;;;;;;;29.88;28.48;;;14.80;99.90;;;;;;5085554;27;20134;-71
2023/03/13 12:56:37;;;;;;;28.73;27.13;;;14.90;99.90;;;;;;5083100;27;20072;-71
2023/03/13 12:59:14;;;;;;;27.85;26.52;;;14.90;99.90;;;;;;5063592;28;20123;-71
2023/03/13 13:01:47;;;;;;;32.40;30.52;;;14.90;99.90;;;;;;5085094;27;20043;-73
2023/03/13 13:04:32;;;;;;;31.83;30.25;;;15.00;99.90;;;;;;5089488;27;20062;-73
2023/03/13 13:07:03;;;;;;;30.98;29.27;;;15.00;99.90;;;;;;5091620;27;20046;-71
2023/03/13 13:09:38;;;;;;;28.98;27.67;;;15.00;99.90;;;;;;5087758;27;20036;-72
2023/03/13 13:12:15;;;;;;;28.65;27.23;;;15.00;99.90;;;;;;5090001;28;20039;-72
2023/03/13 13:14:48;;;;;;;27.80;26.30;;;15.10;99.90;;;;;;5089433;27;20036;-71
2023/03/13 13:17:30;;;;;;;28.67;27.17;;;15.00;99.90;;;;;;5089966;27;20372;-71
2023/03/13 13:19:57;;;;;;;28.23;26.83;;;15.00;99.90;;;;;;5089438;27;20036;-72